createdAt,value
2023-03-16T07:06:09.962Z,5.65
2023-03-16T07:09:27.448Z,5.55
2023-03-16T07:18:37.032Z,9.13
2023-03-16T07:20:46.368Z,9.75
2023-03-16T07:23:57.570Z,9.07
2023-03-16T07:27:05.152Z,13.32
2023-03-16T07:30:17.843Z,9.63
2023-03-16T07:33:37.084Z,8.20
2023-03-16T07:36:56.486Z,9.43
2023-03-16T07:40:09.458Z,8.82
2023-03-16T07:43:15.224Z,8.30
2023-03-16T07:46:31.445Z,7.47
2023-03-16T07:49:41.569Z,7.53
2023-03-16T07:52:57.283Z,9.07
2023-03-16T07:56:03.055Z,8.25
2023-03-16T07:59:13.631Z,10.02
2023-03-16T08:02:21.347Z,7.00
2023-03-16T08:05:39.974Z,6.03
2023-03-16T08:08:57.487Z,4.22
2023-03-16T08:12:15.470Z,5.35
2023-03-16T08:15:23.032Z,8.52
2023-03-16T08:18:40.130Z,4.60
2023-03-16T08:22:01.125Z,7.35
2023-03-16T08:25:18.873Z,7.68
2023-03-16T08:28:51.477Z,4.55
2023-03-16T08:32:04.029Z,5.43
2023-03-16T08:35:23.154Z,6.40
2023-03-16T08:38:34.960Z,3.80
2023-03-16T08:41:49.412Z,6.57
2023-03-16T08:45:24.834Z,7.07
2023-03-16T08:48:40.271Z,8.85
2023-03-16T08:51:56.895Z,5.17
2023-03-16T08:55:10.978Z,5.20
2023-03-16T08:58:22.057Z,5.75
2023-03-16T09:01:26.944Z,4.93
2023-03-16T09:04:46.510Z,6.03
2023-03-16T09:07:57.673Z,4.97
2023-03-16T09:11:08.741Z,5.55
2023-03-16T09:14:15.736Z,4.05
2023-03-16T09:17:26.035Z,5.53
2023-03-16T09:20:37.002Z,7.57
2023-03-16T09:23:47.277Z,6.43
2023-03-16T09:26:57.941Z,4.88
2023-03-16T09:30:09.774Z,5.22
2023-03-16T09:33:14.459Z,6.97
2023-03-16T09:36:21.930Z,5.43
2023-03-16T09:39:31.084Z,6.80
2023-03-16T09:42:56.326Z,5.82
2023-03-16T09:46:16.704Z,6.97
2023-03-16T09:49:58.454Z,5.15
2023-03-16T09:53:21.813Z,6.40
2023-03-16T09:56:38.075Z,6.07
2023-03-16T10:03:30.796Z,6.15
2023-03-16T10:06:50.237Z,5.40
2023-03-16T10:10:25.507Z,5.63
2023-03-16T10:13:33.165Z,4.53
2023-03-16T10:16:50.788Z,6.72
2023-03-16T10:20:12.150Z,5.63
2023-03-16T10:23:21.504Z,6.57
2023-03-16T10:26:41.989Z,4.03
2023-03-16T10:29:58.170Z,4.97
2023-03-16T10:33:41.972Z,4.38
2023-03-16T10:36:47.304Z,5.57
2023-03-16T10:40:03.568Z,7.70
2023-03-16T10:43:22.039Z,5.70
2023-03-16T10:46:28.942Z,4.80
2023-03-16T10:49:47.530Z,6.15
2023-03-16T10:52:54.582Z,4.45
2023-03-16T10:56:02.547Z,4.43
2023-03-16T10:59:39.028Z,4.93
2023-03-16T11:02:56.154Z,3.47
2023-03-16T11:06:24.848Z,3.88
2023-03-16T11:09:49.512Z,4.10
2023-03-16T11:13:00.324Z,3.38
2023-03-16T11:16:30.011Z,3.95
2023-03-16T11:20:02.502Z,1.87
2023-03-16T11:23:23.282Z,4.30
2023-03-16T11:26:46.468Z,7.72
2023-03-16T11:30:01.960Z,2.53
2023-03-16T11:33:12.514Z,4.25
2023-03-16T11:36:50.216Z,1.90
2023-03-16T11:40:17.577Z,5.10
2023-03-16T11:43:47.039Z,2.70
2023-03-16T11:47:36.159Z,3.05
2023-03-16T11:51:18.121Z,5.72
2023-03-16T11:55:10.987Z,2.67
2023-03-16T12:02:27.540Z,4.05
2023-03-16T12:05:38.849Z,2.58
2023-03-16T12:09:24.934Z,2.28
2023-03-16T12:13:22.026Z,3.23
2023-03-16T12:16:49.194Z,3.03
2023-03-16T12:20:23.398Z,2.30
2023-03-16T12:23:41.296Z,1.60
2023-03-16T12:26:53.446Z,3.28
2023-03-16T12:30:17.940Z,1.93
2023-03-16T12:33:50.162Z,3.17
2023-03-16T12:37:17.738Z,1.85
2023-03-16T12:40:30.472Z,2.35
2023-03-16T12:44:06.622Z,2.58
2023-03-16T12:47:43.032Z,3.23
2023-03-16T12:50:53.360Z,4.03
2023-03-16T12:54:03.108Z,2.72
2023-03-16T12:57:12.004Z,1.20
2023-03-16T13:00:16.400Z,1.33
2023-03-16T13:03:31.400Z,1.93
2023-03-16T13:06:45.914Z,1.83
2023-03-16T13:09:59.090Z,2.25
2023-03-16T13:13:22.838Z,1.42
2023-03-16T13:16:38.809Z,1.83
2023-03-16T13:19:59.138Z,1.70
2023-03-16T13:23:25.269Z,1.20
2023-03-16T13:26:51.227Z,1.25
2023-03-16T13:30:18.465Z,3.08
2023-03-16T13:33:29.804Z,2.47
2023-03-16T13:36:35.588Z,1.93
2023-03-16T13:39:47.553Z,0.68
2023-03-16T13:43:23.588Z,3.45
2023-03-16T13:46:34.669Z,2.33
2023-03-16T13:50:11.325Z,2.45
2023-03-16T13:53:24.785Z,4.90
2023-03-16T13:56:37.352Z,1.98
2023-03-16T13:59:53.672Z,1.75
2023-03-16T14:03:14.455Z,2.03
2023-03-16T14:06:28.304Z,1.10
2023-03-16T14:09:41.612Z,1.37
2023-03-16T14:12:55.233Z,3.35
2023-03-16T14:16:15.222Z,3.22
2023-03-16T14:19:36.055Z,1.92
2023-03-16T14:22:38.608Z,2.88
2023-03-16T14:25:55.882Z,1.00
2023-03-16T14:29:34.228Z,2.40
2023-03-16T14:32:46.462Z,1.40
2023-03-16T14:35:57.330Z,2.60
2023-03-16T14:39:17.986Z,3.25
2023-03-16T14:42:46.825Z,2.60
2023-03-16T14:45:52.940Z,2.53
2023-03-16T14:49:40.044Z,2.05
2023-03-16T14:52:51.398Z,3.08
2023-03-16T14:55:59.654Z,3.20
2023-03-16T14:59:04.346Z,4.13
2023-03-16T15:02:24.286Z,2.60
2023-03-16T15:05:43.256Z,3.40
2023-03-16T15:08:57.771Z,2.00
2023-03-16T15:12:06.275Z,2.80
2023-03-16T15:15:18.545Z,4.00
2023-03-16T15:18:23.642Z,5.57
2023-03-16T15:21:37.131Z,4.47
2023-03-16T15:24:41.905Z,3.15
2023-03-16T15:27:57.459Z,3.33
2023-03-16T15:31:03.965Z,2.07
2023-03-16T15:34:14.570Z,1.48
2023-03-16T15:37:29.766Z,1.85
2023-03-16T15:40:45.654Z,5.10
2023-03-16T15:43:48.127Z,1.65
2023-03-16T15:47:00.593Z,1.23
2023-03-16T15:50:03.702Z,1.45
2023-03-16T15:53:30.352Z,1.98
2023-03-16T15:56:47.296Z,1.60
2023-03-16T15:59:55.634Z,2.15
2023-03-16T16:03:08.706Z,2.13
2023-03-16T16:06:25.494Z,2.83
2023-03-16T16:09:39.754Z,2.03
2023-03-16T16:12:51.142Z,2.17
2023-03-16T16:15:54.731Z,2.20
2023-03-16T16:18:58.229Z,2.63
2023-03-16T16:22:15.562Z,2.08
2023-03-16T16:25:46.101Z,2.42
2023-03-16T16:28:53.056Z,3.28
2023-03-16T16:32:27.557Z,3.78
2023-03-16T16:35:37.388Z,6.00
2023-03-16T16:38:48.607Z,2.85
2023-03-16T16:41:55.751Z,2.25
2023-03-16T16:45:04.183Z,2.00
2023-03-16T16:48:27.263Z,2.45
2023-03-16T16:51:43.635Z,3.43
2023-03-16T16:54:56.990Z,3.45
2023-03-16T16:58:01.736Z,2.45
2023-03-16T17:01:05.753Z,4.28
2023-03-16T17:04:16.039Z,3.58
2023-03-16T17:07:44.202Z,4.03
2023-03-16T17:11:00.697Z,3.35
2023-03-16T17:14:05.983Z,3.10
2023-03-16T17:17:29.609Z,3.65
2023-03-16T17:20:34.601Z,4.07
2023-03-16T17:23:47.930Z,2.90
2023-03-16T17:26:59.690Z,3.90
2023-03-16T17:30:02.928Z,3.92
2023-03-16T17:33:22.985Z,6.45
2023-03-16T17:36:28.390Z,4.07
2023-03-16T17:39:42.894Z,5.50
2023-03-16T17:42:56.621Z,7.78
2023-03-16T17:46:08.452Z,6.80
2023-03-16T17:49:30.223Z,8.48
2023-03-16T17:52:41.883Z,10.57
2023-03-16T17:55:50.922Z,10.33
2023-03-16T17:59:02.429Z,10.52
2023-03-16T18:02:36.337Z,14.38
2023-03-16T18:05:46.116Z,13.00
2023-03-16T18:08:56.424Z,9.27
2023-03-16T18:12:01.606Z,13.70
2023-03-16T18:15:04.554Z,12.23
2023-03-16T18:18:37.513Z,14.20
2023-03-16T18:21:46.929Z,15.77
2023-03-16T18:24:53.979Z,16.50
2023-03-16T18:28:07.990Z,16.50
2023-03-16T18:31:34.362Z,13.50
2023-03-16T18:34:48.654Z,13.77
2023-03-16T18:37:54.880Z,14.23
2023-03-16T18:41:26.661Z,10.80
2023-03-16T18:44:31.956Z,10.50
2023-03-16T18:47:46.813Z,7.20
2023-03-16T18:50:53.540Z,10.45
2023-03-16T18:54:00.313Z,8.23
2023-03-16T18:57:25.026Z,14.02
2023-03-16T19:00:38.581Z,14.57
2023-03-16T19:03:46.777Z,11.30
2023-03-16T19:06:52.115Z,7.32
2023-03-16T19:10:12.154Z,11.52
2023-03-16T19:13:22.542Z,10.77
2023-03-16T19:16:24.878Z,9.60
2023-03-16T19:19:40.060Z,10.65
2023-03-16T19:22:54.228Z,14.32
2023-03-16T19:26:06.178Z,10.30
2023-03-16T19:29:21.184Z,6.55
2023-03-16T19:32:51.473Z,11.67
2023-03-16T19:36:13.613Z,8.18
2023-03-16T19:39:22.090Z,5.45
2023-03-16T19:42:36.360Z,6.50
2023-03-16T19:45:42.034Z,6.13
2023-03-16T19:49:01.866Z,5.60
2023-03-16T19:52:21.246Z,10.00
2023-03-16T19:55:48.375Z,6.53
2023-03-16T19:58:54.784Z,7.53
2023-03-16T20:01:59.128Z,7.22
2023-03-16T20:08:27.036Z,6.45
2023-03-16T20:11:38.047Z,10.93
2023-03-16T20:14:51.716Z,10.40
2023-03-16T20:17:57.252Z,7.95
2023-03-16T20:21:10.830Z,8.80
2023-03-16T20:24:21.588Z,8.30
2023-03-16T20:27:35.552Z,5.47
2023-03-16T20:30:44.373Z,6.20
2023-03-16T20:33:47.203Z,7.55
2023-03-16T20:36:54.002Z,7.07
2023-03-16T20:39:59.750Z,9.85
2023-03-16T20:43:04.350Z,8.48
2023-03-16T20:46:06.646Z,8.10
2023-03-16T20:49:35.341Z,8.10
2023-03-16T20:52:44.273Z,8.27
2023-03-16T20:55:48.998Z,9.02
2023-03-16T20:59:03.142Z,11.30
2023-03-16T21:02:25.207Z,10.82
2023-03-16T21:05:40.886Z,10.80
2023-03-16T21:08:50.178Z,8.93
2023-03-16T21:11:58.362Z,9.90
2023-03-16T21:15:23.151Z,12.40
2023-03-16T21:18:38.026Z,10.27
2023-03-16T21:21:48.796Z,11.40
2023-03-16T21:24:56.293Z,11.40
2023-03-16T21:28:06.342Z,11.25
2023-03-16T21:31:22.302Z,10.35
2023-03-16T21:34:45.526Z,11.55
2023-03-16T21:37:52.933Z,9.90
2023-03-16T21:41:07.606Z,11.83
2023-03-16T21:44:28.006Z,10.18
2023-03-16T21:47:50.307Z,12.80
2023-03-16T21:51:01.775Z,14.52
2023-03-16T21:54:19.285Z,11.27
2023-03-16T21:57:55.164Z,11.17
2023-03-16T22:01:10.604Z,13.18
2023-03-16T22:04:40.321Z,12.48
2023-03-16T22:07:45.190Z,14.98
2023-03-16T22:11:00.688Z,13.98
2023-03-16T22:14:04.872Z,12.17
2023-03-16T22:17:19.259Z,12.77
2023-03-16T22:20:33.619Z,14.32
2023-03-16T22:23:38.987Z,13.52
2023-03-16T22:26:41.530Z,14.90
2023-03-16T22:29:58.782Z,11.43
2023-03-16T22:33:08.469Z,13.10
2023-03-16T22:36:22.942Z,13.50
2023-03-16T22:39:42.890Z,13.00
2023-03-16T22:42:47.888Z,15.32
2023-03-16T22:46:01.570Z,12.83
2023-03-16T22:49:29.981Z,11.93
2023-03-16T22:56:24.698Z,13.85
2023-03-16T22:59:31.786Z,12.70
2023-03-16T23:02:46.297Z,16.50
2023-03-16T23:05:50.561Z,12.57
2023-03-16T23:08:57.010Z,14.48
2023-03-16T23:12:03.833Z,13.95
2023-03-16T23:15:20.977Z,12.25
2023-03-16T23:18:34.263Z,14.33
2023-03-16T23:21:38.423Z,12.68
2023-03-16T23:24:53.607Z,13.00
2023-03-16T23:28:13.319Z,12.95
2023-03-16T23:31:30.339Z,13.98
2023-03-16T23:34:48.161Z,12.50
2023-03-16T23:38:03.049Z,17.00
2023-03-16T23:41:25.637Z,14.32
2023-03-16T23:44:32.465Z,14.90
2023-03-16T23:47:49.664Z,13.77
2023-03-16T23:50:58.811Z,18.37
2023-03-16T23:54:33.115Z,13.15
2023-03-16T23:57:41.543Z,15.77
